Time;durP1;ratioP1;P1;durP2;ratioP2;P2;SDS_P1;SDS_P2;PMS_P1;PMS_P2;Temp;Humidity;BMP_temperature;BMP_pressure;BME280_temperature;BME280_humidity;BME280_pressure;Samples;Min_cycle;Max_cycle;Signal;HPM_P1;HPM_P2
2022/04/09 00:00:14;;;;;;;23.23;3.93;;;;;;;3.29;82.20;100387.13;5020885;28;20040;-58
2022/04/09 00:02:39;;;;;;;23.77;3.67;;;;;;;3.28;82.23;100396.78;5022718;28;20117;-59
2022/04/09 00:05:07;;;;;;;25.27;3.73;;;;;;;3.30;82.45;100400.09;5022867;28;20437;-58
2022/04/09 00:07:33;;;;;;;22.40;3.33;;;;;;;3.33;82.25;100402.44;5024253;28;20541;-58
2022/04/09 00:09:58;;;;;;;26.17;3.23;;;;;;;3.35;82.66;100411.03;5019745;28;20120;-59
2022/04/09 00:12:23;;;;;;;22.27;3.57;;;;;;;3.39;82.74;100406.31;5020501;28;20398;-58
2022/04/09 00:14:48;;;;;;;19.23;3.00;;;;;;;3.45;82.61;100412.81;5020682;28;20025;-59
2022/04/09 00:17:14;;;;;;;18.93;3.33;;;;;;;3.53;82.61;100413.84;5024896;28;20050;-59
2022/04/09 00:19:39;;;;;;;23.50;3.13;;;;;;;3.61;82.28;100424.47;5025785;28;20059;-58
2022/04/09 00:22:04;;;;;;;20.77;3.47;;;;;;;3.66;82.23;100439.81;5021604;28;20060;-59
2022/04/09 00:24:29;;;;;;;21.47;3.30;;;;;;;3.66;82.06;100430.13;5025172;28;20378;-59
2022/04/09 00:26:55;;;;;;;16.37;3.50;;;;;;;3.65;81.74;100438.16;5023064;28;20029;-59
2022/04/09 00:29:20;;;;;;;16.17;3.13;;;;;;;3.58;81.92;100443.13;5016377;28;20065;-59
2022/04/09 00:31:45;;;;;;;16.33;3.43;;;;;;;3.55;81.60;100437.31;5019699;28;20029;-59
2022/04/09 00:34:10;;;;;;;17.63;3.07;;;;;;;3.53;81.64;100447.97;5018747;28;20037;-59
2022/04/09 00:36:36;;;;;;;21.47;3.60;;;;;;;3.49;81.90;100443.94;5020218;28;20029;-59
2022/04/09 00:39:02;;;;;;;19.00;3.50;;;;;;;3.51;81.97;100449.88;5023350;28;20051;-59
2022/04/09 00:41:27;;;;;;;20.60;3.97;;;;;;;3.50;81.77;100458.72;5020720;28;20056;-59
2022/04/09 00:43:52;;;;;;;24.53;3.57;;;;;;;3.52;81.66;100458.59;5018934;28;20029;-59
2022/04/09 00:46:17;;;;;;;16.70;2.97;;;;;;;3.50;81.87;100468.41;5016888;28;20030;-59
2022/04/09 00:48:43;;;;;;;24.87;3.80;;;;;;;3.52;81.90;100466.47;5017900;28;20393;-59
2022/04/09 00:51:09;;;;;;;24.40;3.70;;;;;;;3.56;81.80;100467.84;5021101;28;20145;-59
2022/04/09 00:53:37;;;;;;;20.57;3.67;;;;;;;3.57;81.74;100477.41;5020177;28;20040;-59
2022/04/09 00:56:13;;;;;;;17.53;3.40;;;;;;;3.54;81.56;100483.75;5021863;28;20033;-59
2022/04/09 00:58:40;;;;;;;15.43;2.80;;;;;;;3.51;81.39;100485.81;5015402;28;20108;-59
2022/04/09 01:01:06;;;;;;;19.37;2.97;;;;;;;3.49;81.42;100482.50;5033008;28;20489;-59
2022/04/09 01:03:34;;;;;;;23.33;3.20;;;;;;;3.45;81.53;100488.94;5022150;28;20065;-59
2022/04/09 01:05:59;;;;;;;18.60;2.90;;;;;;;3.46;81.36;100491.44;5025562;28;20029;-59
2022/04/09 01:08:24;;;;;;;17.93;3.13;;;;;;;3.45;81.56;100496.81;5018044;28;20033;-59
2022/04/09 01:10:50;;;;;;;20.67;2.87;;;;;;;3.40;81.38;100498.06;5020299;28;20037;-59
2022/04/09 01:13:16;;;;;;;23.63;2.67;;;;;;;3.37;81.41;100508.00;5021277;28;20036;-59
2022/04/09 01:15:41;;;;;;;21.60;2.73;;;;;;;3.29;81.38;100506.03;5025556;28;20021;-59
2022/04/09 01:18:06;;;;;;;22.20;3.30;;;;;;;3.24;81.45;100512.66;5021083;28;20029;-59
2022/04/09 01:20:32;;;;;;;16.13;3.23;;;;;;;3.17;81.77;100519.34;5019636;28;20029;-59
2022/04/09 01:22:57;;;;;;;16.10;3.00;;;;;;;3.10;81.65;100522.50;5022495;28;20041;-59
2022/04/09 01:25:23;;;;;;;22.00;3.20;;;;;;;3.09;82.05;100522.63;5018649;28;20033;-59
2022/04/09 01:27:48;;;;;;;17.63;2.80;;;;;;;3.03;82.04;100521.38;5021173;28;20036;-59
2022/04/09 01:30:14;;;;;;;21.30;3.30;;;;;;;3.08;82.36;100534.09;5013724;28;20037;-59
2022/04/09 01:32:39;;;;;;;15.77;3.07;;;;;;;3.08;82.54;100534.09;5024318;28;20164;-59
2022/04/09 01:35:05;;;;;;;19.30;3.07;;;;;;;3.08;82.55;100544.59;5020689;28;20041;-59
2022/04/09 01:37:31;;;;;;;16.83;3.23;;;;;;;3.05;82.53;100547.47;5022095;28;20030;-59
2022/04/09 01:39:57;;;;;;;16.73;3.23;;;;;;;3.06;82.46;100541.25;5020266;28;20044;-59
2022/04/09 01:42:24;;;;;;;19.97;3.60;;;;;;;3.06;82.54;100547.34;5020546;28;20037;-59
2022/04/09 01:44:50;;;;;;;15.03;3.00;;;;;;;3.02;82.51;100555.59;5018952;28;20469;-59
2022/04/09 01:47:15;;;;;;;18.63;3.10;;;;;;;3.00;82.40;100558.34;5020207;28;20037;-59
2022/04/09 01:49:41;;;;;;;16.33;3.20;;;;;;;3.04;82.59;100572.03;5021215;28;20033;-59
2022/04/09 01:52:07;;;;;;;23.20;3.10;;;;;;;3.07;82.43;100577.03;5018405;28;20029;-59
2022/04/09 01:54:33;;;;;;;17.70;2.77;;;;;;;3.10;82.61;100579.41;5020854;28;20444;-59
2022/04/09 01:56:58;;;;;;;16.20;2.63;;;;;;;3.16;82.41;100578.88;5022887;28;20033;-58
2022/04/09 01:59:23;;;;;;;16.73;2.93;;;;;;;3.17;82.53;100577.91;5018822;28;20083;-58
2022/04/09 02:01:48;;;;;;;21.43;3.77;;;;;;;3.25;82.32;100588.63;5021255;28;20521;-59
2022/04/09 02:04:15;;;;;;;18.67;3.00;;;;;;;3.27;82.30;100591.94;5024342;28;21416;-59
2022/04/09 02:06:42;;;;;;;20.93;2.97;;;;;;;3.30;82.15;100593.47;5022495;28;20075;-59
2022/04/09 02:09:11;;;;;;;16.60;2.83;;;;;;;3.31;82.18;100601.22;5019991;28;20064;-59
2022/04/09 02:11:37;;;;;;;19.65;3.05;;;;;;;3.31;82.45;100603.84;5020496;28;20026;-59
2022/04/09 02:14:02;;;;;;;16.20;2.60;;;;;;;3.29;82.11;100597.88;5021143;28;20040;-58
2022/04/09 02:16:28;;;;;;;13.87;2.57;;;;;;;3.29;81.98;100610.16;5018193;28;20083;-59
2022/04/09 02:18:53;;;;;;;16.47;2.50;;;;;;;3.30;82.07;100617.91;5022739;28;20485;-59
2022/04/09 02:21:18;;;;;;;16.70;2.70;;;;;;;3.32;81.88;100615.16;5019606;28;20112;-59
2022/04/09 02:23:43;;;;;;;16.90;2.73;;;;;;;3.33;81.76;100616.81;5024304;28;20029;-58
2022/04/09 02:26:09;;;;;;;22.87;3.10;;;;;;;3.36;81.83;100624.44;5017985;28;20033;-59
2022/04/09 02:28:34;;;;;;;20.93;3.37;;;;;;;3.38;81.57;100625.97;5022031;28;20063;-59
2022/04/09 02:31:00;;;;;;;16.70;2.57;;;;;;;3.39;81.73;100637.28;5021826;28;20033;-59
2022/04/09 02:33:25;;;;;;;19.57;2.93;;;;;;;3.38;81.28;100649.59;5020847;28;20030;-59
2022/04/09 02:35:50;;;;;;;19.23;2.60;;;;;;;3.40;81.54;100645.03;5021603;28;20033;-59
2022/04/09 02:38:16;;;;;;;20.43;2.90;;;;;;;3.47;81.66;100637.50;5015314;28;20043;-58
2022/04/09 02:40:41;;;;;;;20.13;3.43;;;;;;;3.55;81.38;100642.09;5022134;28;20025;-58
2022/04/09 02:43:07;;;;;;;12.00;2.37;;;;;;;3.57;80.91;100645.41;5021590;28;20029;-59
2022/04/09 02:45:32;;;;;;;16.07;2.87;;;;;;;3.54;81.02;100648.31;5023346;28;20018;-59
2022/04/09 02:47:57;;;;;;;16.33;2.57;;;;;;;3.55;80.95;100663.09;5021227;28;20026;-58
2022/04/09 02:50:23;;;;;;;14.83;2.63;;;;;;;3.48;80.97;100664.59;5018305;28;20510;-59
2022/04/09 02:52:48;;;;;;;13.67;2.43;;;;;;;3.48;80.71;100664.59;5019995;28;20530;-59
2022/04/09 02:55:13;;;;;;;15.43;2.60;;;;;;;3.45;80.86;100663.03;5020950;28;20075;-58
2022/04/09 02:57:40;;;;;;;16.73;2.63;;;;;;;3.44;80.59;100666.59;5014994;28;20022;-59
2022/04/09 03:00:08;;;;;;;13.17;2.20;;;;;;;3.46;80.57;100669.09;5018370;28;20040;-59
2022/04/09 03:02:36;;;;;;;10.73;2.40;;;;;;;3.50;80.40;100675.78;5019937;28;20173;-58
2022/04/09 03:05:03;;;;;;;9.67;1.87;;;;;;;3.48;80.14;100677.72;5021419;28;20029;-59
2022/04/09 03:07:29;;;;;;;13.83;2.67;;;;;;;3.51;80.35;100675.66;5021033;28;20727;-59
2022/04/09 03:09:54;;;;;;;13.37;2.57;;;;;;;3.48;80.29;100698.72;5025011;28;20113;-59
2022/04/09 03:12:19;;;;;;;11.33;2.30;;;;;;;3.45;80.10;100699.78;5022483;28;20042;-59
2022/04/09 03:14:45;;;;;;;10.43;2.23;;;;;;;3.45;80.00;100702.41;5026407;28;20080;-58
2022/04/09 03:17:11;;;;;;;15.13;2.60;;;;;;;3.40;79.93;100704.56;5019270;28;20032;-58
2022/04/09 03:19:36;;;;;;;16.77;2.37;;;;;;;3.39;80.13;100701.13;5025894;28;20025;-59
2022/04/09 03:22:01;;;;;;;13.97;2.10;;;;;;;3.35;79.94;100710.22;5028748;28;20374;-58
2022/04/09 03:24:27;;;;;;;13.30;2.40;;;;;;;3.31;79.97;100714.06;5029433;28;20043;-58
2022/04/09 03:26:52;;;;;;;16.53;2.80;;;;;;;3.29;79.89;100715.97;5030178;28;20516;-59
2022/04/09 03:29:17;;;;;;;19.37;2.60;;;;;;;3.28;79.95;100716.09;5029024;28;20037;-58
2022/04/09 03:31:42;;;;;;;15.33;2.53;;;;;;;3.25;80.07;100714.56;5024345;28;20031;-59
2022/04/09 03:34:08;;;;;;;15.90;2.83;;;;;;;3.22;80.38;100720.06;5024591;28;20109;-59
2022/04/09 03:36:33;;;;;;;13.87;2.20;;;;;;;3.14;80.32;100717.22;5023156;28;20079;-59
2022/04/09 03:38:59;;;;;;;15.07;2.30;;;;;;;3.07;80.07;100716.06;5018166;28;20116;-59
2022/04/09 03:41:24;;;;;;;11.90;2.10;;;;;;;2.98;80.18;100724.69;5022768;28;20066;-59
2022/04/09 03:43:50;;;;;;;20.10;2.97;;;;;;;2.89;80.41;100721.03;5019873;28;20104;-59
2022/04/09 03:46:16;;;;;;;12.17;2.43;;;;;;;2.82;80.37;100734.75;5025638;28;20028;-59
2022/04/09 03:48:42;;;;;;;16.13;2.50;;;;;;;2.66;80.22;100736.00;5023504;28;20029;-59
2022/04/09 03:51:07;;;;;;;11.87;2.57;;;;;;;2.54;80.83;100736.13;5020581;28;20358;-59
2022/04/09 03:53:32;;;;;;;16.87;2.60;;;;;;;2.49;81.05;100734.69;5023019;28;20112;-59
2022/04/09 03:55:58;;;;;;;11.17;2.37;;;;;;;2.51;81.57;100734.56;5020977;28;20034;-59
2022/04/09 03:58:24;;;;;;;13.53;2.50;;;;;;;2.54;82.05;100741.34;5020463;28;20033;-59
2022/04/09 04:00:49;;;;;;;16.60;2.37;;;;;;;2.47;82.08;100738.38;5023162;28;20079;-59
2022/04/09 04:03:15;;;;;;;17.40;3.13;;;;;;;2.44;82.34;100755.19;5022490;28;20037;-59
2022/04/09 04:05:40;;;;;;;16.73;2.60;;;;;;;2.44;82.75;100754.34;5019882;28;20061;-59
2022/04/09 04:08:07;;;;;;;13.33;2.43;;;;;;;2.38;82.62;100753.06;5021503;28;20133;-59
2022/04/09 04:10:34;;;;;;;16.87;3.20;;;;;;;2.39;83.21;100762.59;5020841;28;20413;-59
2022/04/09 04:13:00;;;;;;;13.70;3.07;;;;;;;2.46;83.42;100762.94;5023379;28;20556;-59
2022/04/09 04:15:26;;;;;;;14.97;3.13;;;;;;;2.46;83.26;100758.53;5021737;28;20079;-59
2022/04/09 04:17:51;;;;;;;20.07;3.00;;;;;;;2.44;83.04;100770.09;5020868;28;20401;-61
2022/04/09 04:20:16;;;;;;;15.37;3.33;;;;;;;2.43;83.28;100776.28;5026638;28;20036;-59
2022/04/09 04:22:41;;;;;;;15.80;2.57;;;;;;;2.40;83.46;100779.16;5026239;28;20062;-59
2022/04/09 04:25:07;;;;;;;18.13;3.27;;;;;;;2.37;83.50;100782.00;5027865;28;20041;-59
2022/04/09 04:27:33;;;;;;;17.27;3.87;;;;;;;2.35;83.53;100790.00;5032954;28;20033;-59
2022/04/09 04:30:00;;;;;;;24.83;3.23;;;;;;;2.34;83.68;100795.34;5027754;28;20037;-59
2022/04/09 04:32:26;;;;;;;18.30;3.00;;;;;;;2.31;83.71;100790.31;5024178;28;20033;-59
2022/04/09 04:34:51;;;;;;;17.77;2.80;;;;;;;2.31;83.87;100800.81;5027807;28;20449;-59
2022/04/09 04:37:16;;;;;;;16.97;3.10;;;;;;;2.30;83.94;100799.97;5021193;28;20121;-59
2022/04/09 04:39:41;;;;;;;16.30;2.87;;;;;;;2.27;84.02;100802.81;5022113;28;20037;-59
2022/04/09 04:42:07;;;;;;;15.47;3.07;;;;;;;2.28;83.89;100808.91;5021649;28;20045;-59
2022/04/09 04:44:33;;;;;;;14.00;2.60;;;;;;;2.27;83.75;100815.09;5023643;28;20589;-59
2022/04/09 04:46:58;;;;;;;12.27;2.70;;;;;;;2.26;84.00;100816.88;5020688;28;20029;-59
2022/04/09 04:49:24;;;;;;;18.40;2.80;;;;;;;2.23;84.00;100811.03;5018896;28;20036;-59
2022/04/09 04:51:49;;;;;;;14.73;2.73;;;;;;;2.24;83.98;100810.09;5019670;28;20048;-59
2022/04/09 04:54:14;;;;;;;12.47;2.67;;;;;;;2.25;84.03;100819.63;5017395;28;20034;-59
2022/04/09 04:56:39;;;;;;;16.50;2.80;;;;;;;2.24;84.24;100823.19;5021985;28;20536;-58
2022/04/09 04:59:07;;;;;;;15.47;2.53;;;;;;;2.23;83.84;100829.38;5014489;28;20102;-59
2022/04/09 05:01:34;;;;;;;15.47;2.90;;;;;;;2.19;84.14;100828.78;5020832;28;20029;-59
2022/04/09 05:03:59;;;;;;;19.13;2.97;;;;;;;2.25;84.05;100832.72;5024618;28;20030;-59
2022/04/09 05:06:25;;;;;;;13.40;2.70;;;;;;;2.27;83.89;100831.66;5022271;28;20573;-59
2022/04/09 05:08:50;;;;;;;13.10;2.80;;;;;;;2.28;84.21;100846.41;5025612;28;20029;-59
2022/04/09 05:11:15;;;;;;;12.90;2.50;;;;;;;2.26;84.05;100845.69;5024334;28;20065;-59
2022/04/09 05:13:41;;;;;;;17.70;2.90;;;;;;;2.27;84.05;100846.53;5016789;28;20022;-59
2022/04/09 05:16:06;;;;;;;12.87;2.70;;;;;;;2.30;84.15;100856.78;5017760;28;20091;-59
2022/04/09 05:18:32;;;;;;;14.87;2.67;;;;;;;2.31;84.15;100861.91;5021906;28;20121;-59
2022/04/09 05:20:58;;;;;;;17.37;3.40;;;;;;;2.35;84.34;100871.22;5025513;28;20561;-59
2022/04/09 05:23:23;;;;;;;16.17;2.70;;;;;;;2.43;84.07;100873.25;5025612;28;20092;-59
2022/04/09 05:25:48;;;;;;;15.87;2.80;;;;;;;2.41;84.14;100870.75;5026830;28;20057;-59
2022/04/09 05:28:14;;;;;;;13.83;2.80;;;;;;;2.46;84.20;100883.50;5018868;28;20393;-59
2022/04/09 05:30:43;;;;;;;20.40;3.13;;;;;;;2.48;84.18;100884.22;5023714;28;20401;-58
2022/04/09 05:33:09;;;;;;;;;;;;;;;2.56;83.99;100888.84;5024791;28;20124;-59
2022/04/09 05:35:34;;;;;;;13.30;2.53;;;;;;;2.59;84.04;100889.44;5028034;28;19992;-59
2022/04/09 05:38:00;;;;;;;12.80;2.77;;;;;;;2.64;83.87;100891.75;5024994;28;20116;-59
2022/04/09 05:40:25;;;;;;;14.37;3.30;;;;;;;2.67;84.05;100900.22;5027611;28;20374;-59
2022/04/09 05:42:50;;;;;;;14.20;2.60;;;;;;;2.73;83.76;100904.97;5024397;28;20208;-59
2022/04/09 05:45:16;;;;;;;13.47;2.73;;;;;;;2.82;83.78;100905.19;5020823;28;20039;-59
2022/04/09 05:47:43;;;;;;;17.83;2.70;;;;;;;2.90;83.56;100908.09;5026760;28;20075;-59
2022/04/09 05:50:09;;;;;;;12.90;2.47;;;;;;;2.98;83.47;100913.56;5026210;28;20462;-59
2022/04/09 05:52:35;;;;;;;18.57;3.77;;;;;;;3.04;83.04;100913.91;5026674;28;20040;-59
2022/04/09 05:55:03;;;;;;;16.23;3.13;;;;;;;3.07;82.64;100918.91;5025966;28;20045;-59
2022/04/09 05:57:29;;;;;;;15.40;2.70;;;;;;;3.05;82.73;100927.84;5026406;28;20037;-58
2022/04/09 05:59:54;;;;;;;12.50;2.50;;;;;;;3.01;82.25;100936.94;5023302;28;20038;-59
2022/04/09 06:02:19;;;;;;;9.17;2.40;;;;;;;3.02;82.39;100939.44;5020421;28;20105;-59
2022/04/09 06:04:44;;;;;;;13.97;3.20;;;;;;;3.02;82.14;100939.44;5026814;28;20029;-58
2022/04/09 06:07:13;;;;;;;14.93;2.90;;;;;;;3.10;82.25;100944.91;5027473;28;20033;-58
2022/04/09 06:09:38;;;;;;;17.73;3.20;;;;;;;3.18;82.62;100944.31;5027173;28;20088;-59
2022/04/09 06:12:06;;;;;;;15.83;3.37;;;;;;;3.31;82.64;100947.63;5027066;28;20516;-59
2022/04/09 06:14:31;;;;;;;17.33;3.67;;;;;;;3.46;82.46;100958.69;5027522;28;20075;-59
2022/04/09 06:16:56;;;;;;;14.57;3.03;;;;;;;3.59;82.44;100962.03;5027033;28;20245;-59
2022/04/09 06:19:22;;;;;;;17.00;3.33;;;;;;;3.71;82.75;100973.34;5026452;28;20088;-59
2022/04/09 06:21:47;;;;;;;15.37;2.83;;;;;;;3.78;82.71;100978.97;5026798;28;20421;-59
2022/04/09 06:24:12;;;;;;;17.07;2.80;;;;;;;3.83;82.82;100990.75;5025437;28;20101;-59
2022/04/09 06:26:37;;;;;;;12.90;3.17;;;;;;;3.90;82.46;100996.34;5026854;28;20033;-59
2022/04/09 06:29:04;;;;;;;19.90;3.03;;;;;;;3.96;82.80;100993.22;5025774;28;20068;-59
2022/04/09 06:31:29;;;;;;;18.87;3.23;;;;;;;3.99;82.72;100995.59;5027301;28;20469;-58
2022/04/09 06:33:54;;;;;;;16.27;3.23;;;;;;;4.03;82.59;101000.47;5026467;28;20037;-59
2022/04/09 06:36:19;;;;;;;14.97;2.70;;;;;;;4.07;82.44;101011.59;5027013;28;20404;-58
2022/04/09 06:38:45;;;;;;;22.20;3.13;;;;;;;4.11;82.40;101010.38;5025965;28;20017;-59
2022/04/09 06:41:10;;;;;;;14.60;2.70;;;;;;;4.13;82.39;101024.22;5026296;28;20029;-59
2022/04/09 06:43:35;;;;;;;16.80;3.30;;;;;;;4.19;82.91;101025.53;5026839;28;20493;-59
2022/04/09 06:46:01;;;;;;;16.13;3.63;;;;;;;4.21;82.81;101029.69;5026191;28;20083;-59
2022/04/09 06:48:26;;;;;;;16.20;3.60;;;;;;;4.26;83.04;101039.81;5026413;28;20040;-59
2022/04/09 06:50:52;;;;;;;13.50;2.70;;;;;;;4.28;83.37;101048.41;5027035;28;20033;-59
2022/04/09 06:53:17;;;;;;;16.23;3.30;;;;;;;4.28;83.64;101058.94;5026774;28;20048;-59
2022/04/09 06:55:42;;;;;;;16.43;3.20;;;;;;;4.24;83.48;101065.41;5026832;28;20037;-59
2022/04/09 06:58:07;;;;;;;15.70;3.60;;;;;;;4.13;83.61;101063.66;5029299;28;20475;-59
2022/04/09 07:00:33;;;;;;;12.63;2.90;;;;;;;3.96;83.26;101059.72;5030716;28;20029;-59
2022/04/09 07:03:00;;;;;;;7.00;2.47;;;;;;;3.89;83.05;101044.59;5031355;28;20036;-59
2022/04/09 07:05:25;;;;;;;7.73;2.00;;;;;;;3.80;82.95;101046.16;5028190;28;20026;-59
2022/04/09 07:07:51;;;;;;;9.83;2.50;;;;;;;3.73;82.65;101040.53;5030752;28;20075;-59
2022/04/09 07:10:16;;;;;;;13.03;2.60;;;;;;;3.68;82.62;101047.13;5029547;28;20037;-59
2022/04/09 07:12:43;;;;;;;8.43;2.93;;;;;;;3.65;83.06;101060.50;5030645;28;20064;-58
2022/04/09 07:15:09;;;;;;;13.17;2.47;;;;;;;3.65;83.37;101063.94;5030270;28;20556;-58
2022/04/09 07:17:34;;;;;;;10.10;2.43;;;;;;;3.68;83.42;101061.09;5031192;28;20023;-59
2022/04/09 07:20:01;;;;;;;17.90;3.30;;;;;;;3.73;83.70;101065.97;5029829;28;20112;-58
2022/04/09 07:22:27;;;;;;;12.30;3.80;;;;;;;3.76;84.20;101060.50;5030561;28;20127;-59
2022/04/09 07:24:53;;;;;;;13.33;3.50;;;;;;;3.86;84.65;101061.44;5029953;28;20347;-59
2022/04/09 07:27:20;;;;;;;20.03;3.87;;;;;;;3.91;84.57;101067.16;5030627;28;20041;-59
2022/04/09 07:29:45;;;;;;;14.27;3.53;;;;;;;3.93;84.86;101059.97;5029323;28;20021;-59
2022/04/09 07:32:11;;;;;;;14.10;3.83;;;;;;;4.00;84.74;101063.78;5029006;28;20036;-59
2022/04/09 07:34:36;;;;;;;15.17;3.60;;;;;;;4.12;85.17;101077.75;5027653;28;20053;-59
2022/04/09 07:37:03;;;;;;;14.80;3.30;;;;;;;4.21;85.42;101073.53;5029439;28;20362;-59
2022/04/09 07:39:28;;;;;;;12.60;3.63;;;;;;;4.27;85.38;101067.78;5023360;28;20029;-59
2022/04/09 07:41:54;;;;;;;18.13;3.50;;;;;;;4.36;85.05;101080.19;5029896;28;20036;-59
2022/04/09 07:44:19;;;;;;;12.60;3.33;;;;;;;4.46;85.02;101080.28;5029701;28;20119;-58
2022/04/09 07:46:45;;;;;;;12.20;3.40;;;;;;;4.54;85.05;101073.41;5028437;28;20441;-59
2022/04/09 07:49:10;;;;;;;12.20;2.90;;;;;;;4.60;84.66;101085.22;5023752;28;20175;-58
2022/04/09 07:51:35;;;;;;;16.80;3.23;;;;;;;4.69;84.23;101094.19;5018342;28;20029;-59
2022/04/09 07:54:01;;;;;;;18.10;3.27;;;;;;;4.78;83.89;101088.97;5024272;28;20047;-57
2022/04/09 07:56:26;;;;;;;8.97;2.93;;;;;;;4.90;83.83;101095.00;5016480;28;20068;-58
2022/04/09 07:58:52;;;;;;;13.93;3.23;;;;;;;5.05;83.81;101092.91;5020648;28;20037;-59
2022/04/09 08:01:17;;;;;;;16.17;3.70;;;;;;;5.18;83.93;101086.47;5020138;28;20097;-59
2022/04/09 08:03:42;;;;;;;15.60;3.00;;;;;;;5.34;83.84;101099.19;5021346;28;20026;-59
2022/04/09 08:06:07;;;;;;;17.60;3.57;;;;;;;5.45;83.45;101099.09;5021480;28;20061;-59
2022/04/09 08:08:33;;;;;;;16.00;3.37;;;;;;;5.57;83.56;101107.75;5027268;28;20030;-58
2022/04/09 08:10:58;;;;;;;13.90;3.73;;;;;;;5.72;83.41;101111.69;5029051;28;20101;-59
2022/04/09 08:13:23;;;;;;;17.43;3.37;;;;;;;5.84;82.89;101108.00;5022696;28;20103;-59
2022/04/09 08:15:49;;;;;;;16.50;3.93;;;;;;;6.01;82.06;101108.34;5021124;28;20025;-59
2022/04/09 08:18:14;;;;;;;16.13;3.43;;;;;;;6.16;81.13;101114.94;5019804;28;20043;-58
2022/04/09 08:20:40;;;;;;;13.70;2.87;;;;;;;6.32;80.21;101106.47;5023261;28;20253;-58
2022/04/09 08:23:05;;;;;;;11.43;3.17;;;;;;;6.39;78.70;101102.34;5024381;28;20417;-58
2022/04/09 08:25:31;;;;;;;17.47;2.77;;;;;;;6.56;77.54;101106.09;5029296;28;20722;-59
2022/04/09 08:27:56;;;;;;;15.60;2.40;;;;;;;6.67;77.46;101120.00;5023690;28;20044;-58
2022/04/09 08:30:22;;;;;;;14.37;2.73;;;;;;;6.75;77.47;101151.00;5024892;28;20191;-59
2022/04/09 08:32:49;;;;;;;4.60;1.20;;;;;;;6.57;76.30;101131.50;5019506;28;20030;-59
2022/04/09 08:35:15;;;;;;;5.53;1.60;;;;;;;6.34;75.41;101136.19;5022146;28;20163;-59
2022/04/09 08:37:41;;;;;;;9.57;2.17;;;;;;;6.25;75.34;101132.56;5029118;28;20116;-58
2022/04/09 08:40:09;;;;;;;9.27;1.90;;;;;;;6.17;75.48;101127.16;5027504;28;20038;-59
2022/04/09 08:42:34;;;;;;;11.70;2.10;;;;;;;6.18;75.57;101142.00;5029001;28;20025;-59
2022/04/09 08:45:01;;;;;;;11.20;2.30;;;;;;;6.29;75.84;101135.78;5028836;28;20052;-59
2022/04/09 08:47:28;;;;;;;7.83;1.60;;;;;;;6.40;75.80;101154.97;5024340;28;20040;-59
2022/04/09 08:49:54;;;;;;;3.90;1.57;;;;;;;6.35;74.75;101165.06;5028544;28;20028;-59
2022/04/09 08:52:20;;;;;;;4.60;1.40;;;;;;;6.19;74.21;101173.50;5028580;28;20025;-59
2022/04/09 08:54:45;;;;;;;3.10;1.20;;;;;;;6.06;74.11;101169.41;5028595;28;20028;-59
2022/04/09 08:57:11;;;;;;;3.93;1.13;;;;;;;5.89;73.59;101173.50;5026483;28;20048;-59
2022/04/09 08:59:36;;;;;;;3.60;1.10;;;;;;;5.79;73.56;101170.00;5028138;28;20385;-59
2022/04/09 09:02:03;;;;;;;3.27;1.30;;;;;;;5.75;73.50;101172.03;5028234;28;20030;-59
2022/04/09 09:04:28;;;;;;;5.33;1.80;;;;;;;5.85;73.80;101172.09;5027269;28;20384;-59
2022/04/09 09:06:53;;;;;;;4.37;1.40;;;;;;;6.02;73.79;101183.84;5028231;28;20133;-59
2022/04/09 09:09:31;;;;;;;4.53;1.27;;;;;;;6.26;73.27;101194.91;5027716;28;20642;-59
2022/04/09 09:11:57;;;;;;;5.30;1.63;;;;;;;6.43;73.55;101203.97;5028128;28;20104;-59
2022/04/09 09:14:33;;;;;;;2.63;0.80;;;;;;;6.41;72.28;101201.47;5028925;28;20037;-59
2022/04/09 09:17:00;;;;;;;4.33;1.03;;;;;;;6.23;71.76;101208.34;5028365;28;20083;-59
2022/04/09 09:19:42;;;;;;;1.93;0.80;;;;;;;6.07;71.49;101210.63;5023658;28;20116;-58
2022/04/09 09:22:08;;;;;;;2.23;0.80;;;;;;;5.88;71.73;101209.56;5028379;28;20079;-59
2022/04/09 09:24:33;;;;;;;2.17;0.90;;;;;;;5.76;71.90;101221.13;5026927;28;20029;-59
2022/04/09 09:27:00;;;;;;;3.27;1.00;;;;;;;5.57;71.72;101213.13;5028546;28;20386;-59
2022/04/09 09:29:29;;;;;;;2.57;1.23;;;;;;;5.38;71.10;101215.63;5026755;28;20574;-58
2022/04/09 09:31:56;;;;;;;6.10;1.40;;;;;;;5.28;71.18;101205.88;5028172;28;20268;-59
2022/04/09 09:34:21;;;;;;;4.53;1.30;;;;;;;5.46;72.87;101213.19;5027497;28;20181;-59
2022/04/09 09:36:47;;;;;;;5.37;1.33;;;;;;;5.65;72.76;101213.31;5024375;28;20029;-59
2022/04/09 09:39:18;;;;;;;3.60;1.33;;;;;;;5.78;72.71;101207.81;5026692;28;20436;-59
2022/04/09 09:41:50;;;;;;;5.27;1.40;;;;;;;6.00;72.80;101206.88;5027646;28;20438;-59
2022/04/09 09:44:17;;;;;;;5.23;1.50;;;;;;;6.25;73.03;101206.41;5027543;28;20021;-59
2022/04/09 09:46:43;;;;;;;7.90;1.70;;;;;;;6.52;73.64;101198.72;5027745;28;20076;-59
2022/04/09 09:49:08;;;;;;;6.67;2.20;;;;;;;6.84;74.16;101213.50;5026788;28;20037;-59
2022/04/09 09:51:33;;;;;;;11.17;2.33;;;;;;;7.08;73.25;101208.66;5025103;28;20075;-59
2022/04/09 09:54:05;;;;;;;13.17;2.13;;;;;;;7.36;73.25;101200.84;5021694;28;20401;-58
2022/04/09 09:56:41;;;;;;;11.17;2.37;;;;;;;7.65;73.32;101206.94;5028117;28;20064;-58
2022/04/09 09:59:11;;;;;;;9.17;2.50;;;;;;;7.85;72.91;101193.66;5025875;28;20521;-59
2022/04/09 10:01:40;;;;;;;7.72;2.10;;;;;;;8.20;72.99;101199.09;5027238;28;20033;-59
2022/04/09 10:04:07;;;;;;;10.93;2.20;;;;;;;8.54;72.74;101201.19;5025761;28;20024;-59
2022/04/09 10:06:34;;;;;;;8.93;2.40;;;;;;;8.75;71.44;101190.31;5027745;28;20029;-59
2022/04/09 10:09:02;;;;;;;11.57;2.03;;;;;;;8.82;69.75;101200.16;5024960;28;20033;-58
2022/04/09 10:11:28;;;;;;;5.70;1.83;;;;;;;8.89;68.43;101190.63;5027102;28;20022;-59
2022/04/09 10:13:55;;;;;;;9.80;2.40;;;;;;;8.86;67.47;101204.16;5025568;28;20420;-58
2022/04/09 10:16:23;;;;;;;6.80;1.77;;;;;;;8.80;66.81;101207.41;5027015;28;20026;-59
2022/04/09 10:18:49;;;;;;;9.13;2.05;;;;;;;8.66;65.95;101202.63;5022693;28;20021;-59
2022/04/09 10:21:17;;;;;;;7.47;2.05;;;;;;;8.44;65.95;101203.06;5027384;28;20033;-59
2022/04/09 10:23:43;;;;;;;8.45;1.95;;;;;;;8.58;66.73;101205.19;5027692;28;20088;-59
2022/04/09 10:26:09;;;;;;;7.25;2.00;;;;;;;8.76;66.61;101198.13;5025515;28;20454;-59
2022/04/09 10:28:38;;;;;;;4.90;1.77;;;;;;;8.93;64.68;101204.38;5026681;28;20021;-59
2022/04/09 10:31:21;;;;;;;6.50;1.80;;;;;;;9.04;63.60;101198.06;5026808;28;20183;-59
2022/04/09 10:33:55;;;;;;;9.57;2.10;;;;;;;9.10;63.68;101208.03;5027337;28;20504;-59
2022/04/09 10:36:45;;;;;;;9.82;2.50;;;;;;;9.25;64.11;101199.41;5027271;28;20108;-59
2022/04/09 10:39:22;;;;;;;6.50;1.73;;;;;;;9.55;64.27;101213.22;5025916;28;20489;-59
2022/04/09 10:41:57;;;;;;;5.15;1.50;;;;;;;9.79;62.39;101221.31;5026813;28;20078;-59
2022/04/09 10:44:44;;;;;;;3.08;1.20;;;;;;;9.84;59.49;101220.88;5026662;28;20051;-59
2022/04/09 10:47:13;;;;;;;5.80;1.50;;;;;;;9.79;59.12;101218.66;5020647;28;20044;-59
2022/04/09 10:49:38;;;;;;;5.03;1.35;;;;;;;9.65;57.53;101223.72;5025882;28;20057;-59
2022/04/09 10:52:17;;;;;;;4.38;1.30;;;;;;;9.67;56.78;101237.66;5027006;28;20065;-59
2022/04/09 10:55:05;;;;;;;2.85;1.10;;;;;;;9.79;55.55;101239.88;5022612;28;20063;-59
2022/04/09 10:57:44;;;;;;;6.40;1.42;;;;;;;9.89;56.11;101222.06;5020539;28;20105;-59
2022/04/09 11:00:22;;;;;;;5.40;1.30;;;;;;;9.87;54.76;101225.88;5026436;28;20049;-59
2022/04/09 11:03:25;;;;;;;7.55;1.40;;;;;;;10.01;55.34;101227.09;5026517;28;20112;-59
2022/04/09 11:05:50;;;;;;;4.43;1.13;;;;;;;9.91;54.52;101237.81;5025791;28;20201;-59
2022/04/09 11:08:20;;;;;;;6.13;1.30;;;;;;;9.84;54.24;101218.22;5025411;28;20048;-59
2022/04/09 11:10:46;;;;;;;6.68;1.20;;;;;;;9.89;54.16;101213.28;5026844;28;20033;-59
2022/04/09 11:13:15;;;;;;;6.75;1.20;;;;;;;9.96;54.47;101234.69;5024550;28;20033;-59
2022/04/09 11:15:41;;;;;;;10.13;1.45;;;;;;;9.88;53.54;101211.63;5027179;28;20037;-59
2022/04/09 11:18:07;;;;;;;5.50;1.40;;;;;;;9.94;53.48;101217.13;5022751;28;20033;-59
2022/04/09 11:20:34;;;;;;;5.82;1.20;;;;;;;9.74;52.38;101217.47;5026861;28;20029;-59
2022/04/09 11:23:12;;;;;;;5.35;1.20;;;;;;;9.65;51.75;101229.03;5026494;28;20523;-59